createdAt,value
2018-08-07T00:00:10.946Z,36.50
2018-08-07T00:02:39.476Z,36.60
2018-08-07T00:05:08.258Z,37.20
2018-08-07T00:07:36.792Z,37.30
2018-08-07T00:10:07.174Z,37.40
2018-08-07T00:12:35.690Z,37.90
2018-08-07T00:15:06.307Z,38.10
2018-08-07T00:17:34.835Z,38.20
2018-08-07T00:22:31.580Z,38.30
2018-08-07T00:25:00.066Z,38.20
2018-08-07T00:27:28.601Z,38.10
2018-08-07T00:29:57.465Z,38.20
2018-08-07T00:32:25.944Z,38.10
2018-08-07T00:34:54.481Z,38.10
2018-08-07T00:37:22.982Z,38.60
2018-08-07T00:39:51.469Z,38.10
2018-08-07T00:42:20.982Z,39.10
2018-08-07T00:44:49.468Z,39.10
2018-08-07T00:47:17.947Z,39.70
2018-08-07T00:49:46.481Z,40.20
2018-08-07T00:52:14.933Z,40.10
2018-08-07T00:54:43.471Z,39.50
2018-08-07T00:57:11.934Z,40.30
2018-08-07T00:59:40.477Z,40.30
2018-08-07T01:02:08.999Z,40.50
2018-08-07T01:04:37.489Z,41.10
2018-08-07T01:07:06.622Z,40.70
2018-08-07T01:09:35.395Z,41.00
2018-08-07T01:12:03.953Z,41.20
2018-08-07T01:14:32.431Z,40.90
2018-08-07T01:17:00.894Z,41.20
2018-08-07T01:19:29.414Z,41.60
2018-08-07T01:21:58.198Z,41.40
2018-08-07T01:24:26.830Z,40.80
2018-08-07T01:26:55.386Z,40.90
2018-08-07T01:29:23.799Z,40.70
2018-08-07T01:31:52.314Z,40.90
2018-08-07T01:34:20.758Z,41.00
2018-08-07T01:36:49.278Z,40.70
2018-08-07T01:39:17.752Z,40.80
2018-08-07T01:41:46.323Z,40.60
2018-08-07T01:44:14.786Z,40.40
2018-08-07T01:46:43.276Z,41.90
2018-08-07T01:49:11.721Z,40.50
2018-08-07T01:51:40.294Z,40.60
2018-08-07T01:54:08.748Z,41.20
2018-08-07T01:56:37.273Z,41.30
2018-08-07T01:59:05.742Z,42.00
2018-08-07T02:01:34.235Z,41.30
2018-08-07T02:04:02.689Z,41.30
2018-08-07T02:06:31.189Z,42.30
2018-08-07T02:08:59.792Z,42.40
2018-08-07T02:11:28.298Z,42.30
2018-08-07T02:13:58.827Z,42.30
2018-08-07T02:16:27.341Z,42.90
2018-08-07T02:18:55.849Z,43.90
2018-08-07T02:21:24.349Z,43.90
2018-08-07T02:23:52.849Z,43.90
2018-08-07T02:26:21.373Z,43.90
2018-08-07T02:28:49.838Z,44.00
2018-08-07T02:31:18.386Z,44.10
2018-08-07T02:33:46.841Z,44.10
2018-08-07T02:36:15.354Z,44.00
2018-08-07T02:38:43.827Z,43.90
2018-08-07T02:41:12.324Z,43.90
2018-08-07T02:43:40.789Z,44.00
2018-08-07T02:46:09.315Z,43.30
2018-08-07T02:48:37.770Z,43.80
2018-08-07T02:51:06.320Z,43.90
2018-08-07T02:53:34.838Z,43.90
2018-08-07T02:56:03.342Z,43.70
2018-08-07T02:58:31.796Z,43.70
2018-08-07T03:01:00.318Z,43.60
2018-08-07T03:03:28.786Z,43.50
2018-08-07T03:05:57.488Z,43.80
2018-08-07T03:08:26.030Z,43.60
2018-08-07T03:10:54.934Z,43.60
2018-08-07T03:13:23.378Z,43.60
2018-08-07T03:15:51.857Z,43.60
2018-08-07T03:18:20.558Z,43.50
2018-08-07T03:20:49.037Z,43.50
2018-08-07T03:23:17.578Z,44.10
2018-08-07T03:25:46.096Z,44.50
2018-08-07T03:28:14.829Z,44.30
2018-08-07T03:30:43.282Z,45.00
2018-08-07T03:33:11.850Z,45.00
2018-08-07T03:35:40.428Z,45.00
2018-08-07T03:38:08.922Z,45.10
2018-08-07T03:40:37.583Z,45.70
2018-08-07T03:43:06.348Z,45.70
2018-08-07T03:45:34.861Z,45.70
2018-08-07T03:48:03.382Z,45.80
2018-08-07T03:50:31.809Z,46.40
2018-08-07T03:53:00.376Z,46.40
2018-08-07T03:55:28.834Z,46.70
2018-08-07T03:57:57.342Z,47.70
2018-08-07T04:00:25.830Z,47.10
2018-08-07T04:02:54.339Z,47.20
2018-08-07T04:05:22.811Z,46.70
2018-08-07T04:07:51.327Z,46.60
2018-08-07T04:10:20.449Z,46.10
2018-08-07T04:12:48.986Z,45.60
2018-08-07T04:15:18.557Z,45.90
2018-08-07T04:17:47.097Z,45.60
2018-08-07T04:20:17.500Z,45.10
2018-08-07T04:22:45.986Z,43.90
2018-08-07T04:25:14.645Z,44.80
2018-08-07T04:27:43.105Z,44.60
2018-08-07T04:30:14.887Z,44.20
2018-08-07T04:32:43.949Z,44.50
2018-08-07T04:35:12.982Z,44.60
2018-08-07T04:37:42.343Z,44.10
2018-08-07T04:40:11.226Z,43.40
2018-08-07T04:42:40.547Z,42.30
2018-08-07T04:45:12.552Z,42.20
2018-08-07T04:47:41.379Z,41.60
2018-08-07T04:50:10.313Z,41.20
2018-08-07T04:52:39.362Z,40.50
2018-08-07T04:55:09.161Z,39.50
2018-08-07T04:57:38.003Z,39.10
2018-08-07T05:00:11.779Z,39.10
2018-08-07T05:02:40.278Z,39.20
2018-08-07T05:05:09.207Z,38.60
2018-08-07T05:07:38.238Z,38.00
2018-08-07T05:10:11.481Z,37.70
2018-08-07T05:12:40.005Z,37.40
2018-08-07T05:15:09.730Z,37.20
2018-08-07T05:17:38.726Z,36.70
2018-08-07T05:20:07.693Z,36.40
2018-08-07T05:22:36.940Z,36.00
2018-08-07T05:27:33.862Z,35.40
2018-08-07T05:30:02.386Z,34.90
2018-08-07T05:34:59.083Z,34.40
2018-08-07T05:37:28.027Z,33.70
2018-08-07T05:39:56.558Z,33.80
2018-08-07T05:42:25.193Z,34.00
2018-08-07T05:44:53.730Z,34.00
2018-08-07T05:47:22.170Z,34.10
2018-08-07T05:49:50.853Z,34.20
2018-08-07T05:52:19.333Z,34.20
2018-08-07T05:54:49.230Z,34.30
2018-08-07T05:57:17.698Z,33.80
2018-08-07T05:59:46.209Z,33.80
2018-08-07T06:02:14.686Z,32.50
2018-08-07T06:04:43.175Z,32.60
2018-08-07T06:07:11.721Z,32.60
2018-08-07T06:09:40.492Z,32.40
2018-08-07T06:12:09.067Z,32.00
2018-08-07T06:14:37.817Z,32.50
2018-08-07T06:17:06.426Z,31.20
2018-08-07T06:19:34.886Z,30.60
2018-08-07T06:22:03.409Z,30.40
2018-08-07T06:24:31.849Z,30.20
2018-08-07T06:27:00.325Z,29.90
2018-08-07T06:29:28.829Z,29.70
2018-08-07T06:31:57.366Z,29.70
2018-08-07T06:34:25.888Z,29.30
2018-08-07T06:36:54.404Z,29.20
2018-08-07T06:39:22.925Z,28.80
2018-08-07T06:41:51.426Z,28.80
2018-08-07T06:44:20.073Z,28.80
2018-08-07T06:46:48.645Z,28.90
2018-08-07T06:49:17.128Z,28.50
2018-08-07T06:51:45.675Z,28.20
2018-08-07T06:54:14.263Z,27.90
2018-08-07T06:56:42.839Z,28.00
2018-08-07T06:59:11.318Z,27.90
2018-08-07T07:01:39.838Z,27.80
2018-08-07T07:04:08.349Z,27.60
2018-08-07T07:09:08.996Z,27.50
2018-08-07T07:11:37.526Z,27.30
2018-08-07T07:14:06.577Z,27.20
2018-08-07T07:16:36.324Z,27.00
2018-08-07T07:19:04.946Z,27.10
2018-08-07T07:21:33.732Z,26.80
2018-08-07T07:24:02.286Z,26.80
2018-08-07T07:26:31.188Z,26.70
2018-08-07T07:28:59.797Z,26.70
2018-08-07T07:31:28.562Z,26.40
2018-08-07T07:33:57.029Z,26.20
2018-08-07T07:36:25.633Z,26.20
2018-08-07T07:38:54.148Z,25.80
2018-08-07T07:41:22.749Z,25.60
2018-08-07T07:43:51.310Z,25.20
2018-08-07T07:46:19.864Z,24.60
2018-08-07T07:48:48.421Z,24.40
2018-08-07T07:51:17.041Z,25.20
2018-08-07T07:53:45.591Z,24.60
2018-08-07T07:56:14.217Z,24.60
2018-08-07T07:58:42.736Z,24.70
2018-08-07T08:01:11.316Z,24.80
2018-08-07T08:03:39.907Z,24.80
2018-08-07T08:06:08.628Z,24.80
2018-08-07T08:08:37.808Z,24.60
2018-08-07T08:11:06.496Z,24.40
2018-08-07T08:13:35.133Z,24.00
2018-08-07T08:16:03.824Z,23.80
2018-08-07T08:18:32.440Z,23.60
2018-08-07T08:21:01.143Z,23.30
2018-08-07T08:23:29.686Z,23.10
2018-08-07T08:25:58.229Z,23.10
2018-08-07T08:28:26.864Z,22.70
2018-08-07T08:30:55.405Z,22.70
2018-08-07T08:33:24.036Z,22.50
2018-08-07T08:35:52.622Z,22.50
2018-08-07T08:38:21.217Z,22.20
2018-08-07T08:40:49.856Z,22.10
2018-08-07T08:43:18.590Z,21.80
2018-08-07T08:45:47.203Z,21.70
2018-08-07T08:48:15.805Z,21.20
2018-08-07T08:50:44.321Z,21.00
2018-08-07T08:53:12.948Z,21.10
2018-08-07T08:55:41.513Z,21.00
2018-08-07T08:58:10.298Z,20.80
2018-08-07T09:00:38.859Z,20.60
2018-08-07T09:03:07.525Z,20.30
2018-08-07T09:05:36.058Z,20.30
2018-08-07T09:08:05.738Z,20.20
2018-08-07T09:10:34.428Z,19.90
2018-08-07T09:13:03.047Z,19.80
2018-08-07T09:15:31.644Z,19.80
2018-08-07T09:18:00.212Z,19.70
2018-08-07T09:20:30.279Z,19.40
2018-08-07T09:22:59.291Z,19.10
2018-08-07T09:25:29.079Z,19.00
2018-08-07T09:27:57.709Z,18.80
2018-08-07T09:30:29.705Z,18.90
2018-08-07T09:32:59.271Z,18.00
2018-08-07T09:35:28.145Z,17.90
2018-08-07T09:37:57.874Z,17.30
2018-08-07T09:40:26.749Z,17.10
2018-08-07T09:42:56.297Z,16.80
2018-08-07T09:45:28.604Z,16.40
2018-08-07T09:47:57.228Z,15.70
2018-08-07T09:50:25.920Z,15.70
2018-08-07T09:52:54.700Z,15.20
2018-08-07T09:55:23.297Z,15.20
2018-08-07T09:57:51.844Z,15.30
2018-08-07T10:00:26.788Z,15.30
2018-08-07T10:02:59.007Z,15.30
2018-08-07T10:05:29.283Z,15.30
2018-08-07T10:07:58.525Z,15.30
2018-08-07T10:10:27.160Z,15.30
2018-08-07T10:12:55.859Z,15.30
2018-08-07T10:15:24.434Z,15.30
2018-08-07T10:17:53.188Z,15.30
2018-08-07T10:20:21.704Z,15.30
2018-08-07T10:22:50.297Z,14.60
2018-08-07T10:25:19.997Z,14.20
2018-08-07T10:27:49.145Z,14.10
2018-08-07T10:30:19.350Z,12.70
2018-08-07T10:32:48.666Z,13.60
2018-08-07T10:35:17.305Z,14.10
2018-08-07T10:37:46.403Z,14.30
2018-08-07T10:40:21.000Z,14.10
2018-08-07T10:42:49.610Z,14.00
2018-08-07T10:45:19.836Z,13.80
2018-08-07T10:47:48.451Z,13.80
2018-08-07T10:50:20.641Z,12.90
2018-08-07T10:52:50.208Z,13.30
2018-08-07T10:55:19.606Z,13.10
2018-08-07T10:57:49.675Z,13.70
2018-08-07T11:00:21.521Z,13.10
2018-08-07T11:02:50.987Z,13.00
2018-08-07T11:05:20.019Z,12.80
2018-08-07T11:07:48.616Z,12.90
2018-08-07T11:10:17.696Z,12.60
2018-08-07T11:12:46.252Z,12.40
2018-08-07T11:15:25.821Z,12.40
2018-08-07T11:17:55.497Z,12.40
2018-08-07T11:20:24.312Z,12.50
2018-08-07T11:22:54.234Z,12.30
2018-08-07T11:25:24.752Z,12.50
2018-08-07T11:27:53.349Z,12.90
2018-08-07T11:30:24.292Z,12.30
2018-08-07T11:32:53.746Z,12.60
2018-08-07T11:35:23.296Z,12.50
2018-08-07T11:37:53.145Z,12.10
2018-08-07T11:40:23.214Z,11.60
2018-08-07T11:42:52.908Z,12.60
2018-08-07T11:45:23.788Z,12.50
2018-08-07T11:47:52.366Z,12.00
2018-08-07T11:50:22.493Z,12.20
2018-08-07T11:52:51.101Z,12.30
2018-08-07T11:55:20.376Z,12.10
2018-08-07T11:57:50.277Z,12.30
2018-08-07T12:00:23.191Z,12.00
2018-08-07T12:02:51.744Z,12.50
2018-08-07T12:05:20.304Z,12.40
2018-08-07T12:07:49.022Z,12.40
2018-08-07T12:10:18.708Z,12.30
2018-08-07T12:12:47.722Z,12.50
2018-08-07T12:15:18.658Z,12.70
2018-08-07T12:17:47.426Z,12.40
2018-08-07T12:20:15.976Z,12.90
2018-08-07T12:22:44.600Z,13.00
2018-08-07T12:25:14.491Z,12.70
2018-08-07T12:27:43.136Z,12.80
2018-08-07T12:30:21.771Z,12.80
2018-08-07T12:32:50.321Z,12.60
2018-08-07T12:35:19.414Z,12.60
2018-08-07T12:37:48.296Z,12.30
2018-08-07T12:40:20.676Z,12.10
2018-08-07T12:42:49.933Z,12.60
2018-08-07T12:45:18.722Z,12.40
2018-08-07T12:47:48.050Z,12.10
2018-08-07T12:50:17.782Z,12.30
2018-08-07T12:52:46.424Z,12.60
2018-08-07T12:55:16.771Z,12.60
2018-08-07T12:57:45.833Z,12.90
2018-08-07T13:00:18.083Z,13.00
2018-08-07T13:02:46.807Z,12.90
2018-08-07T13:05:15.421Z,12.70
2018-08-07T13:07:44.276Z,11.90
2018-08-07T13:10:18.351Z,11.70
2018-08-07T13:12:47.610Z,11.10
2018-08-07T13:17:47.238Z,9.90
2018-08-07T13:20:15.813Z,9.20
2018-08-07T13:22:45.954Z,8.20
2018-08-07T13:25:16.801Z,7.10
2018-08-07T13:27:45.384Z,6.80
2018-08-07T13:30:20.588Z,5.50
2018-08-07T13:32:49.503Z,4.90
2018-08-07T13:35:18.679Z,4.80
2018-08-07T13:37:48.775Z,3.60
2018-08-07T13:40:18.711Z,3.20
2018-08-07T13:42:47.421Z,2.50
2018-08-07T13:45:17.664Z,1.60
2018-08-07T13:47:46.335Z,1.00
2018-08-07T13:50:18.501Z,1.00
2018-08-07T13:52:47.780Z,1.00
2018-08-07T13:55:17.521Z,1.00
2018-08-07T13:57:47.106Z,1.00
2018-08-07T14:00:18.936Z,1.00
2018-08-07T14:02:48.193Z,1.00
2018-08-07T14:05:17.830Z,1.00
2018-08-07T14:07:47.380Z,1.00
2018-08-07T14:10:16.645Z,1.00
2018-08-07T14:12:45.560Z,1.00
2018-08-07T14:15:15.598Z,1.00
2018-08-07T14:17:44.891Z,1.00
2018-08-07T14:20:15.897Z,1.00
2018-08-07T14:22:45.093Z,1.00
2018-08-07T14:25:18.506Z,1.00
2018-08-07T14:27:47.152Z,1.00
2018-08-07T14:30:17.782Z,1.00
2018-08-07T14:32:46.681Z,1.00
2018-08-07T14:35:15.501Z,1.00
2018-08-07T14:37:45.023Z,1.00
2018-08-07T14:40:16.069Z,1.00
2018-08-07T14:42:46.797Z,1.00
2018-08-07T14:45:18.835Z,1.00
2018-08-07T14:47:48.241Z,1.00
2018-08-07T14:50:19.804Z,1.00
2018-08-07T14:52:48.469Z,1.30
2018-08-07T14:55:17.121Z,1.90
2018-08-07T14:57:45.841Z,2.50
2018-08-07T15:00:20.008Z,2.80
2018-08-07T15:02:49.124Z,3.10
2018-08-07T15:05:17.759Z,4.00
2018-08-07T15:07:46.966Z,4.40
2018-08-07T15:10:19.892Z,5.10
2018-08-07T15:15:19.739Z,5.00
2018-08-07T15:17:48.775Z,4.90
2018-08-07T15:20:46.463Z,5.60
2018-08-07T15:23:15.020Z,3.90
2018-08-07T15:25:43.547Z,3.60
2018-08-07T15:28:12.152Z,2.60
2018-08-07T15:30:40.715Z,1.00
2018-08-07T15:33:09.557Z,1.00
2018-08-07T15:35:38.084Z,1.00
2018-08-07T15:38:07.033Z,1.00
2018-08-07T15:40:35.609Z,1.00
2018-08-07T15:43:04.196Z,1.00
2018-08-07T15:45:33.242Z,1.00
2018-08-07T15:48:01.856Z,1.00
2018-08-07T15:50:30.438Z,1.00
2018-08-07T15:52:59.051Z,1.00
2018-08-07T15:55:28.120Z,1.00
2018-08-07T15:57:57.259Z,1.00
2018-08-07T16:00:29.037Z,1.00
2018-08-07T16:03:00.775Z,1.00
2018-08-07T16:05:30.256Z,1.00
2018-08-07T16:07:59.124Z,1.00
2018-08-07T16:10:28.735Z,1.00
2018-08-07T16:12:57.756Z,1.00
2018-08-07T16:15:27.572Z,1.00
2018-08-07T16:17:56.162Z,1.00
2018-08-07T16:20:25.057Z,1.00
2018-08-07T16:22:53.780Z,1.00
2018-08-07T16:25:22.936Z,1.00
2018-08-07T16:27:51.778Z,1.00
2018-08-07T16:30:22.144Z,1.00
2018-08-07T16:32:50.672Z,1.00
2018-08-07T16:35:19.332Z,1.00
2018-08-07T16:37:48.790Z,1.00
2018-08-07T16:40:19.226Z,1.00
2018-08-07T16:42:48.685Z,1.00
2018-08-07T16:45:18.590Z,1.00
2018-08-07T16:47:47.552Z,1.00
2018-08-07T16:50:20.458Z,1.00
2018-08-07T16:52:50.566Z,1.00
2018-08-07T16:55:19.221Z,1.30
2018-08-07T16:57:47.828Z,1.70
2018-08-07T17:00:16.414Z,1.90
2018-08-07T17:02:45.625Z,2.30
2018-08-07T17:05:15.497Z,2.40
2018-08-07T17:07:46.100Z,2.80
2018-08-07T17:10:21.164Z,3.10
2018-08-07T17:12:50.008Z,3.80
2018-08-07T17:15:18.569Z,4.00
2018-08-07T17:17:47.191Z,4.50
2018-08-07T17:20:17.336Z,4.40
2018-08-07T17:22:46.263Z,4.30
2018-08-07T17:25:16.217Z,4.30
2018-08-07T17:27:46.264Z,4.20
2018-08-07T17:30:16.457Z,4.10
2018-08-07T17:32:47.426Z,4.10
2018-08-07T17:35:21.476Z,4.00
2018-08-07T17:37:51.480Z,4.00
2018-08-07T17:40:21.645Z,3.90
2018-08-07T17:42:50.236Z,4.30
2018-08-07T17:45:18.896Z,4.40
2018-08-07T17:47:47.691Z,4.40
2018-08-07T17:50:18.806Z,4.70
2018-08-07T17:52:47.380Z,5.00
2018-08-07T17:55:16.920Z,5.20
2018-08-07T17:57:46.086Z,5.70
2018-08-07T18:00:18.279Z,5.40
2018-08-07T18:02:47.234Z,6.00
2018-08-07T18:05:15.957Z,6.30
2018-08-07T18:07:46.560Z,6.00
2018-08-07T18:10:16.742Z,6.20
2018-08-07T18:12:45.437Z,6.60
2018-08-07T18:15:15.554Z,6.80
2018-08-07T18:17:45.293Z,7.10
2018-08-07T18:20:21.097Z,7.40
2018-08-07T18:22:50.187Z,7.80
2018-08-07T18:25:19.012Z,7.80
2018-08-07T18:27:47.666Z,7.80
2018-08-07T18:30:18.260Z,7.80
2018-08-07T18:32:46.997Z,8.00
2018-08-07T18:35:18.392Z,8.30
2018-08-07T18:37:47.419Z,8.70
2018-08-07T18:40:16.060Z,8.90
2018-08-07T18:42:45.253Z,8.80
2018-08-07T18:45:14.831Z,9.20
2018-08-07T18:47:47.945Z,9.30
2018-08-07T18:50:20.275Z,9.70
2018-08-07T18:52:48.903Z,10.00
2018-08-07T18:55:17.468Z,10.20
2018-08-07T18:57:47.488Z,10.30
2018-08-07T19:00:17.720Z,10.50
2018-08-07T19:02:46.376Z,10.70
2018-08-07T19:05:16.781Z,10.90
2018-08-07T19:07:45.596Z,11.10
2018-08-07T19:10:14.528Z,10.80
2018-08-07T19:12:44.301Z,11.00
2018-08-07T19:15:14.164Z,11.30
2018-08-07T19:17:43.048Z,11.60
2018-08-07T19:20:14.303Z,11.80
2018-08-07T19:22:42.932Z,12.10
2018-08-07T19:25:13.493Z,12.20
2018-08-07T19:27:42.697Z,12.60
2018-08-07T19:30:13.121Z,12.70
2018-08-07T19:32:42.016Z,13.00
2018-08-07T19:35:11.960Z,13.80
2018-08-07T19:37:41.642Z,13.80
2018-08-07T19:40:15.090Z,13.70
2018-08-07T19:42:44.451Z,13.70
2018-08-07T19:45:13.769Z,14.00
2018-08-07T19:47:43.246Z,13.60
2018-08-07T19:50:13.506Z,13.60
2018-08-07T19:52:42.260Z,14.20
2018-08-07T19:55:14.239Z,14.60
2018-08-07T19:57:43.036Z,14.60
2018-08-07T20:00:16.027Z,14.60
2018-08-07T20:02:45.293Z,14.50
2018-08-07T20:05:13.998Z,14.50
2018-08-07T20:07:43.653Z,14.60
2018-08-07T20:10:13.939Z,14.80
2018-08-07T20:12:42.961Z,15.00
2018-08-07T20:15:16.417Z,15.30
2018-08-07T20:17:45.135Z,14.90
2018-08-07T20:20:13.716Z,15.50
2018-08-07T20:22:42.476Z,15.70
2018-08-07T20:25:12.092Z,15.90
2018-08-07T20:27:41.683Z,16.30
2018-08-07T20:30:12.561Z,16.60
2018-08-07T20:32:41.510Z,16.80
2018-08-07T20:35:10.507Z,16.90
2018-08-07T20:37:39.221Z,17.30
2018-08-07T20:40:13.653Z,17.50
2018-08-07T20:42:42.326Z,17.80
2018-08-07T20:45:10.882Z,18.00
2018-08-07T20:47:39.904Z,18.20
2018-08-07T20:50:14.952Z,18.30
2018-08-07T20:52:47.115Z,18.50
2018-08-07T20:55:16.172Z,18.60
2018-08-07T20:57:44.811Z,18.80
2018-08-07T21:00:17.037Z,18.80
2018-08-07T21:02:45.750Z,19.10
2018-08-07T21:05:14.404Z,19.30
2018-08-07T21:07:43.225Z,19.10
2018-08-07T21:10:16.875Z,18.70
2018-08-07T21:12:45.677Z,19.00
2018-08-07T21:15:14.464Z,19.10
2018-08-07T21:17:45.338Z,19.30
2018-08-07T21:20:16.434Z,19.50
2018-08-07T21:22:45.418Z,20.00
2018-08-07T21:25:16.299Z,19.90
2018-08-07T21:27:45.760Z,19.80
2018-08-07T21:30:17.244Z,19.80
2018-08-07T21:32:46.516Z,19.70
2018-08-07T21:35:15.354Z,20.20
2018-08-07T21:37:44.047Z,20.20
2018-08-07T21:40:17.113Z,20.70
2018-08-07T21:42:46.417Z,20.80
2018-08-07T21:45:15.656Z,20.90
2018-08-07T21:47:44.615Z,20.90
2018-08-07T21:50:15.034Z,21.50
2018-08-07T21:52:43.668Z,21.70
2018-08-07T21:55:15.945Z,22.00
2018-08-07T21:57:44.693Z,21.80
2018-08-07T22:00:17.163Z,22.10
2018-08-07T22:02:47.049Z,22.70
2018-08-07T22:05:15.624Z,22.10
2018-08-07T22:07:44.333Z,22.00
2018-08-07T22:10:22.045Z,22.10
2018-08-07T22:12:50.772Z,22.20
2018-08-07T22:15:20.229Z,22.00
2018-08-07T22:17:48.828Z,22.20
2018-08-07T22:20:17.436Z,22.00
2018-08-07T22:22:46.033Z,22.30
2018-08-07T22:25:15.946Z,22.80
2018-08-07T22:27:44.600Z,23.10
2018-08-07T22:30:17.225Z,23.50
2018-08-07T22:32:45.931Z,24.00
2018-08-07T22:35:14.822Z,24.00
2018-08-07T22:37:43.499Z,23.90
2018-08-07T22:40:13.166Z,23.80
2018-08-07T22:42:41.814Z,23.80
2018-08-07T22:45:12.256Z,23.80
2018-08-07T22:47:41.552Z,23.80
2018-08-07T22:50:11.604Z,23.70
2018-08-07T22:52:40.714Z,23.30
2018-08-07T22:55:11.769Z,23.60
2018-08-07T22:57:41.350Z,23.60
2018-08-07T23:00:12.594Z,23.90
2018-08-07T23:02:41.593Z,24.50
2018-08-07T23:05:10.617Z,24.60
2018-08-07T23:07:39.185Z,24.70
2018-08-07T23:10:12.749Z,24.70
2018-08-07T23:12:42.104Z,24.80
2018-08-07T23:15:13.671Z,25.20
2018-08-07T23:17:42.781Z,25.20
2018-08-07T23:20:12.942Z,25.60
2018-08-07T23:22:41.505Z,25.70
2018-08-07T23:25:10.723Z,25.50
2018-08-07T23:27:39.297Z,26.40
2018-08-07T23:30:11.653Z,25.30
2018-08-07T23:32:40.221Z,25.60
2018-08-07T23:35:09.020Z,25.70
2018-08-07T23:37:37.597Z,25.90
2018-08-07T23:40:08.004Z,26.10
2018-08-07T23:42:36.609Z,26.50
2018-08-07T23:45:06.989Z,26.80
2018-08-07T23:47:36.020Z,26.90
2018-08-07T23:50:05.039Z,27.00
2018-08-07T23:52:33.867Z,26.80
2018-08-07T23:55:02.547Z,27.00
2018-08-07T23:57:31.024Z,27.20
2018-08-07T23:59:59.625Z,27.20
